Norma, New Jersey
Current Conditions -  °F | °C
As of 2:54 AM on Friday 19 Dec 2014 (Local Time) from KMIV Reporting Station
Few Clouds Few Clouds  
Wind Chill: -2°   Ceiling: Unl
Heat Index:   Visibility: 10mi
Dew Point: -3°   Wind: 9mph
Humidity: 70%   Direction: 280°W
Pressure: 30.05"   Gusts: NA
Location:  39.5°N, 75.09°W
Report Text: KMIV 190754Z AUTO 28008KT 10SM FEW037 02/M03 A3005 RMK AO2 SLP175 T00171033
Loading
Personal Weather Stations






























Interactive Weather Map New forecast layout! Learn more

10-Day Weather Forecast

Advertisements
Track Severe Weather on mobile